sensor_id;sensor_type;location;lat;lon;timestamp;P1;durP1;ratioP1;P2;durP2;ratioP2
78116;SDS011;69042;59.120;37.904;2023-06-19T00:01:24;4.75;;;2.10;;
78116;SDS011;69042;59.120;37.904;2023-06-19T00:03:50;6.63;;;2.50;;
78116;SDS011;69042;59.120;37.904;2023-06-19T00:06:17;4.95;;;2.28;;
78116;SDS011;69042;59.120;37.904;2023-06-19T00:08:43;5.18;;;2.20;;
78116;SDS011;69042;59.120;37.904;2023-06-19T00:11:09;5.25;;;2.50;;
78116;SDS011;69042;59.120;37.904;2023-06-19T00:13:36;4.57;;;2.03;;
78116;SDS011;69042;59.120;37.904;2023-06-19T00:16:02;7.05;;;2.70;;
78116;SDS011;69042;59.120;37.904;2023-06-19T00:18:28;4.72;;;2.42;;
78116;SDS011;69042;59.120;37.904;2023-06-19T00:20:55;5.70;;;2.47;;
78116;SDS011;69042;59.120;37.904;2023-06-19T00:23:23;5.72;;;2.65;;
78116;SDS011;69042;59.120;37.904;2023-06-19T00:25:49;6.28;;;2.60;;
78116;SDS011;69042;59.120;37.904;2023-06-19T00:28:15;8.88;;;3.65;;
78116;SDS011;69042;59.120;37.904;2023-06-19T00:30:45;7.07;;;4.53;;
78116;SDS011;69042;59.120;37.904;2023-06-19T00:33:13;9.50;;;5.10;;
78116;SDS011;69042;59.120;37.904;2023-06-19T00:35:39;12.05;;;9.80;;
78116;SDS011;69042;59.120;37.904;2023-06-19T00:38:07;14.05;;;10.02;;
78116;SDS011;69042;59.120;37.904;2023-06-19T00:40:34;16.48;;;11.10;;
78116;SDS011;69042;59.120;37.904;2023-06-19T00:43:00;16.80;;;10.45;;
78116;SDS011;69042;59.120;37.904;2023-06-19T00:45:27;12.88;;;9.60;;
78116;SDS011;69042;59.120;37.904;2023-06-19T00:47:56;9.45;;;6.57;;
78116;SDS011;69042;59.120;37.904;2023-06-19T00:50:24;13.80;;;8.65;;
78116;SDS011;69042;59.120;37.904;2023-06-19T00:52:51;13.57;;;10.00;;
78116;SDS011;69042;59.120;37.904;2023-06-19T00:55:18;20.10;;;10.20;;
78116;SDS011;69042;59.120;37.904;2023-06-19T00:57:45;14.15;;;10.60;;
78116;SDS011;69042;59.120;37.904;2023-06-19T01:00:12;16.00;;;10.93;;
78116;SDS011;69042;59.120;37.904;2023-06-19T01:02:39;16.50;;;10.98;;
78116;SDS011;69042;59.120;37.904;2023-06-19T01:05:06;13.57;;;9.75;;
78116;SDS011;69042;59.120;37.904;2023-06-19T01:10:43;17.23;;;12.15;;
78116;SDS011;69042;59.120;37.904;2023-06-19T01:13:17;15.57;;;10.48;;
78116;SDS011;69042;59.120;37.904;2023-06-19T01:16:02;17.35;;;11.82;;
78116;SDS011;69042;59.120;37.904;2023-06-19T01:18:33;17.40;;;12.23;;
78116;SDS011;69042;59.120;37.904;2023-06-19T01:21:13;20.30;;;11.77;;
78116;SDS011;69042;59.120;37.904;2023-06-19T01:23:41;19.30;;;12.07;;
78116;SDS011;69042;59.120;37.904;2023-06-19T01:26:09;14.77;;;10.40;;
78116;SDS011;69042;59.120;37.904;2023-06-19T01:28:38;17.23;;;11.80;;
78116;SDS011;69042;59.120;37.904;2023-06-19T01:31:08;16.33;;;10.90;;
78116;SDS011;69042;59.120;37.904;2023-06-19T01:33:39;18.48;;;11.50;;
78116;SDS011;69042;59.120;37.904;2023-06-19T01:36:08;16.83;;;11.40;;
78116;SDS011;69042;59.120;37.904;2023-06-19T01:38:36;15.98;;;12.90;;
78116;SDS011;69042;59.120;37.904;2023-06-19T01:41:04;17.42;;;13.18;;
78116;SDS011;69042;59.120;37.904;2023-06-19T01:43:32;19.42;;;12.63;;
78116;SDS011;69042;59.120;37.904;2023-06-19T01:45:59;20.60;;;13.05;;
78116;SDS011;69042;59.120;37.904;2023-06-19T01:48:27;15.45;;;13.23;;
78116;SDS011;69042;59.120;37.904;2023-06-19T01:50:53;16.92;;;13.40;;
78116;SDS011;69042;59.120;37.904;2023-06-19T01:53:20;18.40;;;12.25;;
78116;SDS011;69042;59.120;37.904;2023-06-19T01:55:46;15.98;;;11.68;;
78116;SDS011;69042;59.120;37.904;2023-06-19T01:58:13;15.00;;;10.00;;
78116;SDS011;69042;59.120;37.904;2023-06-19T02:00:39;15.07;;;9.88;;
78116;SDS011;69042;59.120;37.904;2023-06-19T02:03:05;30.58;;;10.73;;
78116;SDS011;69042;59.120;37.904;2023-06-19T02:05:32;15.30;;;10.60;;
78116;SDS011;69042;59.120;37.904;2023-06-19T02:08:01;16.27;;;12.18;;
78116;SDS011;69042;59.120;37.904;2023-06-19T02:10:27;15.38;;;11.10;;
78116;SDS011;69042;59.120;37.904;2023-06-19T02:12:55;16.83;;;11.18;;
78116;SDS011;69042;59.120;37.904;2023-06-19T02:15:21;17.10;;;11.77;;
78116;SDS011;69042;59.120;37.904;2023-06-19T02:17:48;17.80;;;10.48;;
78116;SDS011;69042;59.120;37.904;2023-06-19T02:20:15;12.70;;;9.07;;
78116;SDS011;69042;59.120;37.904;2023-06-19T02:22:41;11.20;;;7.43;;
78116;SDS011;69042;59.120;37.904;2023-06-19T02:25:07;13.95;;;6.78;;
78116;SDS011;69042;59.120;37.904;2023-06-19T02:27:35;14.10;;;7.00;;
78116;SDS011;69042;59.120;37.904;2023-06-19T02:30:01;12.13;;;6.97;;
78116;SDS011;69042;59.120;37.904;2023-06-19T02:32:30;13.65;;;7.00;;
78116;SDS011;69042;59.120;37.904;2023-06-19T02:34:57;14.93;;;7.95;;
78116;SDS011;69042;59.120;37.904;2023-06-19T02:39:51;15.25;;;7.82;;
78116;SDS011;69042;59.120;37.904;2023-06-19T02:42:17;17.90;;;8.43;;
78116;SDS011;69042;59.120;37.904;2023-06-19T02:44:43;17.83;;;9.00;;
78116;SDS011;69042;59.120;37.904;2023-06-19T02:47:10;17.05;;;9.23;;
78116;SDS011;69042;59.120;37.904;2023-06-19T02:49:36;15.13;;;10.68;;
78116;SDS011;69042;59.120;37.904;2023-06-19T02:52:03;16.02;;;10.30;;
78116;SDS011;69042;59.120;37.904;2023-06-19T02:54:30;19.48;;;11.48;;
78116;SDS011;69042;59.120;37.904;2023-06-19T02:56:56;31.05;;;11.85;;
78116;SDS011;69042;59.120;37.904;2023-06-19T03:02:07;17.15;;;8.07;;
78116;SDS011;69042;59.120;37.904;2023-06-19T03:04:34;19.35;;;8.15;;
78116;SDS011;69042;59.120;37.904;2023-06-19T03:07:18;24.20;;;8.15;;
78116;SDS011;69042;59.120;37.904;2023-06-19T03:09:45;22.63;;;8.00;;
78116;SDS011;69042;59.120;37.904;2023-06-19T03:12:11;25.75;;;9.07;;
78116;SDS011;69042;59.120;37.904;2023-06-19T03:14:37;19.77;;;7.65;;
78116;SDS011;69042;59.120;37.904;2023-06-19T03:17:04;15.70;;;7.60;;
78116;SDS011;69042;59.120;37.904;2023-06-19T03:19:31;19.73;;;8.05;;
78116;SDS011;69042;59.120;37.904;2023-06-19T03:21:57;18.85;;;5.65;;
78116;SDS011;69042;59.120;37.904;2023-06-19T03:24:23;17.20;;;5.57;;
78116;SDS011;69042;59.120;37.904;2023-06-19T03:26:54;19.88;;;5.32;;
78116;SDS011;69042;59.120;37.904;2023-06-19T03:29:21;15.85;;;5.50;;
78116;SDS011;69042;59.120;37.904;2023-06-19T03:31:53;15.35;;;5.20;;
78116;SDS011;69042;59.120;37.904;2023-06-19T03:34:21;12.50;;;4.40;;
78116;SDS011;69042;59.120;37.904;2023-06-19T03:36:49;9.40;;;3.80;;
78116;SDS011;69042;59.120;37.904;2023-06-19T03:39:15;12.23;;;3.92;;
78116;SDS011;69042;59.120;37.904;2023-06-19T03:41:42;15.30;;;3.70;;
78116;SDS011;69042;59.120;37.904;2023-06-19T03:44:09;11.93;;;3.67;;
78116;SDS011;69042;59.120;37.904;2023-06-19T03:46:35;13.98;;;4.28;;
78116;SDS011;69042;59.120;37.904;2023-06-19T03:49:04;15.45;;;4.25;;
78116;SDS011;69042;59.120;37.904;2023-06-19T03:51:30;13.38;;;4.20;;
78116;SDS011;69042;59.120;37.904;2023-06-19T03:53:56;8.30;;;3.60;;
78116;SDS011;69042;59.120;37.904;2023-06-19T03:56:23;10.73;;;3.58;;
78116;SDS011;69042;59.120;37.904;2023-06-19T04:01:34;15.85;;;3.85;;
78116;SDS011;69042;59.120;37.904;2023-06-19T04:04:00;17.00;;;3.53;;
78116;SDS011;69042;59.120;37.904;2023-06-19T04:06:27;15.32;;;3.65;;
78116;SDS011;69042;59.120;37.904;2023-06-19T04:08:53;9.95;;;4.10;;
78116;SDS011;69042;59.120;37.904;2023-06-19T04:11:19;9.38;;;3.28;;
78116;SDS011;69042;59.120;37.904;2023-06-19T04:13:48;10.43;;;3.00;;
78116;SDS011;69042;59.120;37.904;2023-06-19T04:16:14;13.70;;;3.63;;
78116;SDS011;69042;59.120;37.904;2023-06-19T04:18:41;18.25;;;4.50;;
78116;SDS011;69042;59.120;37.904;2023-06-19T04:21:28;12.40;;;3.78;;
78116;SDS011;69042;59.120;37.904;2023-06-19T04:23:55;12.38;;;3.88;;
78116;SDS011;69042;59.120;37.904;2023-06-19T04:26:21;16.67;;;4.22;;
78116;SDS011;69042;59.120;37.904;2023-06-19T04:28:48;18.05;;;4.63;;
78116;SDS011;69042;59.120;37.904;2023-06-19T04:31:14;13.10;;;3.85;;
78116;SDS011;69042;59.120;37.904;2023-06-19T04:33:45;15.98;;;6.13;;
78116;SDS011;69042;59.120;37.904;2023-06-19T04:38:38;16.20;;;5.13;;
78116;SDS011;69042;59.120;37.904;2023-06-19T04:41:04;10.90;;;5.20;;
78116;SDS011;69042;59.120;37.904;2023-06-19T04:43:30;12.40;;;4.65;;
78116;SDS011;69042;59.120;37.904;2023-06-19T04:45:57;13.30;;;5.93;;
78116;SDS011;69042;59.120;37.904;2023-06-19T04:48:23;14.35;;;6.22;;
78116;SDS011;69042;59.120;37.904;2023-06-19T04:50:51;13.13;;;7.38;;
78116;SDS011;69042;59.120;37.904;2023-06-19T04:53:18;20.58;;;7.55;;
78116;SDS011;69042;59.120;37.904;2023-06-19T04:55:44;25.17;;;7.78;;
78116;SDS011;69042;59.120;37.904;2023-06-19T04:58:10;14.77;;;5.50;;
78116;SDS011;69042;59.120;37.904;2023-06-19T05:00:37;16.15;;;5.57;;
78116;SDS011;69042;59.120;37.904;2023-06-19T05:03:03;15.25;;;4.88;;
78116;SDS011;69042;59.120;37.904;2023-06-19T05:05:29;14.70;;;4.00;;
78116;SDS011;69042;59.120;37.904;2023-06-19T05:10:41;25.55;;;4.80;;
78116;SDS011;69042;59.120;37.904;2023-06-19T05:15:52;20.85;;;4.68;;
78116;SDS011;69042;59.120;37.904;2023-06-19T05:18:19;21.20;;;4.80;;
78116;SDS011;69042;59.120;37.904;2023-06-19T05:21:04;20.02;;;5.82;;
78116;SDS011;69042;59.120;37.904;2023-06-19T05:23:30;16.88;;;5.35;;
78116;SDS011;69042;59.120;37.904;2023-06-19T05:25:56;17.70;;;5.55;;
78116;SDS011;69042;59.120;37.904;2023-06-19T05:28:22;14.65;;;5.72;;
78116;SDS011;69042;59.120;37.904;2023-06-19T05:30:49;18.45;;;5.18;;
78116;SDS011;69042;59.120;37.904;2023-06-19T05:33:16;19.63;;;5.18;;
78116;SDS011;69042;59.120;37.904;2023-06-19T05:35:43;22.70;;;6.30;;
78116;SDS011;69042;59.120;37.904;2023-06-19T05:40:56;21.08;;;6.18;;
78116;SDS011;69042;59.120;37.904;2023-06-19T05:43:23;21.23;;;5.60;;
78116;SDS011;69042;59.120;37.904;2023-06-19T05:45:50;22.13;;;5.43;;
78116;SDS011;69042;59.120;37.904;2023-06-19T05:48:18;16.33;;;4.80;;
78116;SDS011;69042;59.120;37.904;2023-06-19T05:50:44;14.75;;;4.00;;
78116;SDS011;69042;59.120;37.904;2023-06-19T05:53:10;16.83;;;4.53;;
78116;SDS011;69042;59.120;37.904;2023-06-19T05:55:37;15.05;;;4.20;;
78116;SDS011;69042;59.120;37.904;2023-06-19T05:58:03;10.55;;;3.30;;
78116;SDS011;69042;59.120;37.904;2023-06-19T06:00:30;9.15;;;3.35;;
78116;SDS011;69042;59.120;37.904;2023-06-19T06:02:58;13.02;;;4.20;;
78116;SDS011;69042;59.120;37.904;2023-06-19T06:05:28;13.13;;;4.57;;
78116;SDS011;69042;59.120;37.904;2023-06-19T06:10:39;12.90;;;4.35;;
78116;SDS011;69042;59.120;37.904;2023-06-19T06:15:51;14.23;;;5.55;;
78116;SDS011;69042;59.120;37.904;2023-06-19T06:18:17;16.80;;;6.65;;
78116;SDS011;69042;59.120;37.904;2023-06-19T06:20:43;13.82;;;6.03;;
78116;SDS011;69042;59.120;37.904;2023-06-19T06:25:54;10.50;;;3.95;;
78116;SDS011;69042;59.120;37.904;2023-06-19T06:28:27;16.15;;;5.95;;
78116;SDS011;69042;59.120;37.904;2023-06-19T06:30:54;19.05;;;8.40;;
78116;SDS011;69042;59.120;37.904;2023-06-19T06:33:20;20.92;;;9.00;;
78116;SDS011;69042;59.120;37.904;2023-06-19T06:35:46;29.20;;;12.32;;
78116;SDS011;69042;59.120;37.904;2023-06-19T06:38:17;39.42;;;13.00;;
78116;SDS011;69042;59.120;37.904;2023-06-19T06:43:11;37.05;;;15.35;;
78116;SDS011;69042;59.120;37.904;2023-06-19T06:45:38;26.23;;;10.90;;
78116;SDS011;69042;59.120;37.904;2023-06-19T06:48:11;28.33;;;10.95;;
78116;SDS011;69042;59.120;37.904;2023-06-19T06:50:38;15.65;;;6.70;;
78116;SDS011;69042;59.120;37.904;2023-06-19T06:55:49;18.70;;;8.35;;
78116;SDS011;69042;59.120;37.904;2023-06-19T06:58:15;23.67;;;11.43;;
78116;SDS011;69042;59.120;37.904;2023-06-19T07:03:10;31.15;;;11.55;;
78116;SDS011;69042;59.120;37.904;2023-06-19T07:05:37;22.05;;;10.25;;
78116;SDS011;69042;59.120;37.904;2023-06-19T07:08:03;24.40;;;10.65;;
78116;SDS011;69042;59.120;37.904;2023-06-19T07:10:30;28.40;;;12.65;;
78116;SDS011;69042;59.120;37.904;2023-06-19T07:12:56;17.40;;;7.80;;
78116;SDS011;69042;59.120;37.904;2023-06-19T07:15:23;23.25;;;11.00;;
78116;SDS011;69042;59.120;37.904;2023-06-19T07:17:49;17.25;;;6.68;;
78116;SDS011;69042;59.120;37.904;2023-06-19T07:20:15;16.35;;;6.35;;
78116;SDS011;69042;59.120;37.904;2023-06-19T07:22:42;20.20;;;9.35;;
78116;SDS011;69042;59.120;37.904;2023-06-19T07:25:09;23.85;;;10.25;;
78116;SDS011;69042;59.120;37.904;2023-06-19T07:27:37;19.45;;;8.57;;
78116;SDS011;69042;59.120;37.904;2023-06-19T07:30:05;25.45;;;12.93;;
78116;SDS011;69042;59.120;37.904;2023-06-19T07:32:33;26.15;;;12.27;;
78116;SDS011;69042;59.120;37.904;2023-06-19T07:34:59;17.95;;;8.02;;
78116;SDS011;69042;59.120;37.904;2023-06-19T07:37:25;33.78;;;13.18;;
78116;SDS011;69042;59.120;37.904;2023-06-19T07:39:52;18.33;;;6.57;;
78116;SDS011;69042;59.120;37.904;2023-06-19T07:42:19;16.45;;;6.80;;
78116;SDS011;69042;59.120;37.904;2023-06-19T07:44:45;9.60;;;4.18;;
78116;SDS011;69042;59.120;37.904;2023-06-19T07:47:12;9.88;;;3.22;;
78116;SDS011;69042;59.120;37.904;2023-06-19T07:49:39;5.78;;;2.60;;
78116;SDS011;69042;59.120;37.904;2023-06-19T07:52:23;7.13;;;2.50;;
78116;SDS011;69042;59.120;37.904;2023-06-19T07:54:54;8.00;;;2.80;;
78116;SDS011;69042;59.120;37.904;2023-06-19T07:57:21;7.32;;;2.38;;
78116;SDS011;69042;59.120;37.904;2023-06-19T07:59:48;7.00;;;2.70;;
78116;SDS011;69042;59.120;37.904;2023-06-19T08:02:16;5.85;;;2.60;;
78116;SDS011;69042;59.120;37.904;2023-06-19T08:04:42;12.32;;;5.15;;
78116;SDS011;69042;59.120;37.904;2023-06-19T08:07:08;8.00;;;3.53;;
78116;SDS011;69042;59.120;37.904;2023-06-19T08:12:19;10.10;;;4.80;;
78116;SDS011;69042;59.120;37.904;2023-06-19T08:14:45;16.70;;;6.70;;
78116;SDS011;69042;59.120;37.904;2023-06-19T08:17:31;10.10;;;4.20;;
78116;SDS011;69042;59.120;37.904;2023-06-19T08:19:57;7.25;;;3.30;;
78116;SDS011;69042;59.120;37.904;2023-06-19T08:22:23;6.68;;;2.88;;
78116;SDS011;69042;59.120;37.904;2023-06-19T08:24:50;6.07;;;2.50;;
78116;SDS011;69042;59.120;37.904;2023-06-19T08:27:16;8.70;;;2.97;;
78116;SDS011;69042;59.120;37.904;2023-06-19T08:29:43;4.82;;;2.35;;
78116;SDS011;69042;59.120;37.904;2023-06-19T08:32:09;9.98;;;3.63;;
78116;SDS011;69042;59.120;37.904;2023-06-19T08:34:35;7.75;;;3.90;;
78116;SDS011;69042;59.120;37.904;2023-06-19T08:37:02;5.43;;;2.50;;
78116;SDS011;69042;59.120;37.904;2023-06-19T08:39:28;4.32;;;1.95;;
78116;SDS011;69042;59.120;37.904;2023-06-19T08:41:54;7.85;;;3.28;;
78116;SDS011;69042;59.120;37.904;2023-06-19T08:44:20;11.23;;;4.00;;
78116;SDS011;69042;59.120;37.904;2023-06-19T08:46:46;13.98;;;5.40;;
78116;SDS011;69042;59.120;37.904;2023-06-19T08:49:13;13.65;;;5.82;;
78116;SDS011;69042;59.120;37.904;2023-06-19T08:51:42;8.77;;;4.88;;
78116;SDS011;69042;59.120;37.904;2023-06-19T08:54:08;8.95;;;2.90;;
78116;SDS011;69042;59.120;37.904;2023-06-19T08:56:38;11.50;;;3.90;;
78116;SDS011;69042;59.120;37.904;2023-06-19T08:59:11;12.05;;;5.20;;
78116;SDS011;69042;59.120;37.904;2023-06-19T09:04:12;17.23;;;7.28;;
78116;SDS011;69042;59.120;37.904;2023-06-19T09:06:49;11.00;;;3.92;;
78116;SDS011;69042;59.120;37.904;2023-06-19T09:09:17;9.00;;;4.10;;
78116;SDS011;69042;59.120;37.904;2023-06-19T09:14:34;14.13;;;6.40;;
78116;SDS011;69042;59.120;37.904;2023-06-19T09:17:02;8.77;;;4.20;;
78116;SDS011;69042;59.120;37.904;2023-06-19T09:22:06;6.68;;;2.80;;
78116;SDS011;69042;59.120;37.904;2023-06-19T09:24:37;8.52;;;3.22;;
78116;SDS011;69042;59.120;37.904;2023-06-19T09:27:10;7.13;;;2.50;;
78116;SDS011;69042;59.120;37.904;2023-06-19T09:29:44;7.78;;;2.10;;
78116;SDS011;69042;59.120;37.904;2023-06-19T09:32:29;6.22;;;2.53;;
78116;SDS011;69042;59.120;37.904;2023-06-19T09:34:56;10.45;;;4.20;;
78116;SDS011;69042;59.120;37.904;2023-06-19T09:37:27;9.38;;;4.25;;
78116;SDS011;69042;59.120;37.904;2023-06-19T09:42:39;9.00;;;3.60;;
78116;SDS011;69042;59.120;37.904;2023-06-19T09:48:08;5.75;;;2.85;;
78116;SDS011;69042;59.120;37.904;2023-06-19T09:50:50;10.00;;;4.25;;
78116;SDS011;69042;59.120;37.904;2023-06-19T09:53:20;11.75;;;6.10;;
78116;SDS011;69042;59.120;37.904;2023-06-19T09:55:48;12.77;;;3.92;;
78116;SDS011;69042;59.120;37.904;2023-06-19T09:58:33;8.02;;;3.80;;
78116;SDS011;69042;59.120;37.904;2023-06-19T10:01:02;15.68;;;6.85;;
78116;SDS011;69042;59.120;37.904;2023-06-19T10:03:31;9.57;;;3.75;;
78116;SDS011;69042;59.120;37.904;2023-06-19T10:05:59;9.60;;;2.40;;
78116;SDS011;69042;59.120;37.904;2023-06-19T10:08:45;5.50;;;2.35;;
78116;SDS011;69042;59.120;37.904;2023-06-19T10:11:12;5.82;;;2.83;;
78116;SDS011;69042;59.120;37.904;2023-06-19T10:13:42;13.50;;;4.20;;
78116;SDS011;69042;59.120;37.904;2023-06-19T10:16:19;5.57;;;2.38;;
78116;SDS011;69042;59.120;37.904;2023-06-19T10:18:47;4.78;;;2.20;;
78116;SDS011;69042;59.120;37.904;2023-06-19T10:21:20;8.45;;;3.22;;
78116;SDS011;69042;59.120;37.904;2023-06-19T10:23:56;8.68;;;3.20;;
78116;SDS011;69042;59.120;37.904;2023-06-19T10:29:17;5.95;;;2.40;;
78116;SDS011;69042;59.120;37.904;2023-06-19T10:31:43;6.22;;;2.60;;
78116;SDS011;69042;59.120;37.904;2023-06-19T10:34:10;6.30;;;2.67;;
78116;SDS011;69042;59.120;37.904;2023-06-19T10:36:37;8.55;;;3.22;;
78116;SDS011;69042;59.120;37.904;2023-06-19T10:39:24;12.23;;;6.80;;
78116;SDS011;69042;59.120;37.904;2023-06-19T10:41:50;8.48;;;4.18;;
78116;SDS011;69042;59.120;37.904;2023-06-19T10:44:16;9.82;;;4.55;;
78116;SDS011;69042;59.120;37.904;2023-06-19T10:46:43;7.75;;;3.22;;
78116;SDS011;69042;59.120;37.904;2023-06-19T10:49:10;6.63;;;2.95;;
78116;SDS011;69042;59.120;37.904;2023-06-19T10:54:25;6.70;;;3.20;;
78116;SDS011;69042;59.120;37.904;2023-06-19T10:56:51;6.10;;;2.50;;
78116;SDS011;69042;59.120;37.904;2023-06-19T10:59:17;5.60;;;2.83;;
78116;SDS011;69042;59.120;37.904;2023-06-19T11:01:47;6.82;;;3.05;;
78116;SDS011;69042;59.120;37.904;2023-06-19T11:04:16;10.25;;;4.90;;
78116;SDS011;69042;59.120;37.904;2023-06-19T11:06:43;11.27;;;4.45;;
78116;SDS011;69042;59.120;37.904;2023-06-19T11:09:11;9.93;;;3.65;;
78116;SDS011;69042;59.120;37.904;2023-06-19T11:14:28;8.40;;;3.55;;
78116;SDS011;69042;59.120;37.904;2023-06-19T11:16:55;6.82;;;2.50;;
78116;SDS011;69042;59.120;37.904;2023-06-19T11:19:40;19.85;;;10.02;;
78116;SDS011;69042;59.120;37.904;2023-06-19T11:22:09;16.02;;;6.55;;
78116;SDS011;69042;59.120;37.904;2023-06-19T11:24:35;6.43;;;2.90;;
78116;SDS011;69042;59.120;37.904;2023-06-19T11:27:01;6.72;;;3.00;;
78116;SDS011;69042;59.120;37.904;2023-06-19T11:29:54;8.57;;;3.03;;
78116;SDS011;69042;59.120;37.904;2023-06-19T11:32:22;6.78;;;2.70;;
78116;SDS011;69042;59.120;37.904;2023-06-19T11:34:51;5.45;;;2.20;;
78116;SDS011;69042;59.120;37.904;2023-06-19T11:37:19;5.95;;;2.30;;
78116;SDS011;69042;59.120;37.904;2023-06-19T11:39:47;6.03;;;3.22;;
78116;SDS011;69042;59.120;37.904;2023-06-19T11:42:14;5.93;;;2.88;;
78116;SDS011;69042;59.120;37.904;2023-06-19T11:44:52;8.07;;;3.72;;
78116;SDS011;69042;59.120;37.904;2023-06-19T11:47:37;8.57;;;3.60;;
78116;SDS011;69042;59.120;37.904;2023-06-19T11:50:04;7.55;;;3.80;;
78116;SDS011;69042;59.120;37.904;2023-06-19T11:52:31;5.72;;;2.80;;
78116;SDS011;69042;59.120;37.904;2023-06-19T11:54:57;9.07;;;4.10;;
78116;SDS011;69042;59.120;37.904;2023-06-19T11:57:23;8.68;;;4.07;;
78116;SDS011;69042;59.120;37.904;2023-06-19T11:59:49;17.85;;;8.13;;
78116;SDS011;69042;59.120;37.904;2023-06-19T12:02:17;19.92;;;9.68;;
78116;SDS011;69042;59.120;37.904;2023-06-19T12:04:43;19.55;;;8.35;;
78116;SDS011;69042;59.120;37.904;2023-06-19T12:07:09;15.00;;;8.10;;
78116;SDS011;69042;59.120;37.904;2023-06-19T12:09:35;15.27;;;8.27;;
78116;SDS011;69042;59.120;37.904;2023-06-19T12:12:01;11.13;;;6.13;;
78116;SDS011;69042;59.120;37.904;2023-06-19T12:14:28;8.73;;;4.50;;
78116;SDS011;69042;59.120;37.904;2023-06-19T12:16:54;10.82;;;4.53;;
78116;SDS011;69042;59.120;37.904;2023-06-19T12:19:20;10.82;;;4.80;;
78116;SDS011;69042;59.120;37.904;2023-06-19T12:21:46;16.15;;;6.85;;
78116;SDS011;69042;59.120;37.904;2023-06-19T12:24:12;13.95;;;4.85;;
78116;SDS011;69042;59.120;37.904;2023-06-19T12:26:38;10.77;;;5.32;;
78116;SDS011;69042;59.120;37.904;2023-06-19T12:29:05;7.13;;;3.70;;
78116;SDS011;69042;59.120;37.904;2023-06-19T12:34:17;13.48;;;6.15;;
78116;SDS011;69042;59.120;37.904;2023-06-19T12:36:43;24.13;;;10.38;;
78116;SDS011;69042;59.120;37.904;2023-06-19T12:39:10;17.15;;;6.60;;
78116;SDS011;69042;59.120;37.904;2023-06-19T12:41:41;9.80;;;3.50;;
78116;SDS011;69042;59.120;37.904;2023-06-19T12:44:10;11.73;;;3.55;;
78116;SDS011;69042;59.120;37.904;2023-06-19T12:46:36;7.93;;;3.25;;
78116;SDS011;69042;59.120;37.904;2023-06-19T12:49:03;5.80;;;3.13;;
78116;SDS011;69042;59.120;37.904;2023-06-19T12:51:29;5.68;;;2.50;;
78116;SDS011;69042;59.120;37.904;2023-06-19T12:53:55;10.55;;;4.78;;
78116;SDS011;69042;59.120;37.904;2023-06-19T12:56:22;10.02;;;4.80;;
78116;SDS011;69042;59.120;37.904;2023-06-19T12:58:48;10.68;;;5.28;;
78116;SDS011;69042;59.120;37.904;2023-06-19T13:01:14;7.20;;;3.30;;
78116;SDS011;69042;59.120;37.904;2023-06-19T13:03:40;8.43;;;4.63;;
78116;SDS011;69042;59.120;37.904;2023-06-19T13:06:06;6.22;;;2.55;;
78116;SDS011;69042;59.120;37.904;2023-06-19T13:08:32;6.78;;;2.88;;
78116;SDS011;69042;59.120;37.904;2023-06-19T13:10:58;7.50;;;3.47;;
78116;SDS011;69042;59.120;37.904;2023-06-19T13:13:24;15.20;;;5.43;;
78116;SDS011;69042;59.120;37.904;2023-06-19T13:15:50;8.02;;;3.25;;
78116;SDS011;69042;59.120;37.904;2023-06-19T13:18:17;8.95;;;2.50;;
78116;SDS011;69042;59.120;37.904;2023-06-19T13:20:43;8.18;;;2.30;;
78116;SDS011;69042;59.120;37.904;2023-06-19T13:23:14;5.18;;;2.20;;
78116;SDS011;69042;59.120;37.904;2023-06-19T13:25:40;5.80;;;2.70;;
78116;SDS011;69042;59.120;37.904;2023-06-19T13:28:06;6.45;;;2.30;;
78116;SDS011;69042;59.120;37.904;2023-06-19T13:30:32;5.60;;;2.30;;
78116;SDS011;69042;59.120;37.904;2023-06-19T13:32:59;7.53;;;3.38;;
78116;SDS011;69042;59.120;37.904;2023-06-19T13:35:25;7.75;;;2.95;;
78116;SDS011;69042;59.120;37.904;2023-06-19T13:37:51;7.53;;;2.63;;
78116;SDS011;69042;59.120;37.904;2023-06-19T13:40:17;13.90;;;7.20;;
78116;SDS011;69042;59.120;37.904;2023-06-19T13:42:43;15.65;;;8.98;;
78116;SDS011;69042;59.120;37.904;2023-06-19T13:45:09;6.60;;;3.30;;
78116;SDS011;69042;59.120;37.904;2023-06-19T13:47:36;8.20;;;3.05;;
78116;SDS011;69042;59.120;37.904;2023-06-19T13:50:02;8.50;;;4.25;;
78116;SDS011;69042;59.120;37.904;2023-06-19T13:52:29;10.30;;;3.80;;
78116;SDS011;69042;59.120;37.904;2023-06-19T13:54:56;12.80;;;5.13;;
78116;SDS011;69042;59.120;37.904;2023-06-19T13:57:22;15.55;;;5.82;;
78116;SDS011;69042;59.120;37.904;2023-06-19T13:59:48;13.57;;;5.97;;
78116;SDS011;69042;59.120;37.904;2023-06-19T14:02:14;7.68;;;3.40;;
78116;SDS011;69042;59.120;37.904;2023-06-19T14:04:41;6.65;;;2.80;;
78116;SDS011;69042;59.120;37.904;2023-06-19T14:07:07;20.95;;;9.45;;
78116;SDS011;69042;59.120;37.904;2023-06-19T14:09:33;10.57;;;3.80;;
78116;SDS011;69042;59.120;37.904;2023-06-19T14:11:59;8.45;;;4.28;;
78116;SDS011;69042;59.120;37.904;2023-06-19T14:14:25;11.02;;;4.13;;
78116;SDS011;69042;59.120;37.904;2023-06-19T14:16:52;12.40;;;4.47;;
78116;SDS011;69042;59.120;37.904;2023-06-19T14:19:18;9.88;;;4.68;;
78116;SDS011;69042;59.120;37.904;2023-06-19T14:21:44;19.77;;;7.82;;
78116;SDS011;69042;59.120;37.904;2023-06-19T14:24:10;7.03;;;3.10;;
78116;SDS011;69042;59.120;37.904;2023-06-19T14:26:36;8.63;;;2.83;;
78116;SDS011;69042;59.120;37.904;2023-06-19T14:29:02;6.43;;;2.83;;
78116;SDS011;69042;59.120;37.904;2023-06-19T14:31:28;8.50;;;4.28;;
78116;SDS011;69042;59.120;37.904;2023-06-19T14:33:54;9.00;;;3.60;;
78116;SDS011;69042;59.120;37.904;2023-06-19T14:36:21;5.20;;;2.78;;
78116;SDS011;69042;59.120;37.904;2023-06-19T14:38:47;6.93;;;2.65;;
78116;SDS011;69042;59.120;37.904;2023-06-19T14:41:13;5.25;;;2.38;;
78116;SDS011;69042;59.120;37.904;2023-06-19T14:43:40;6.38;;;3.25;;
78116;SDS011;69042;59.120;37.904;2023-06-19T14:46:06;5.50;;;2.72;;
78116;SDS011;69042;59.120;37.904;2023-06-19T14:48:32;5.43;;;2.95;;
78116;SDS011;69042;59.120;37.904;2023-06-19T14:50:58;9.57;;;4.32;;
78116;SDS011;69042;59.120;37.904;2023-06-19T14:53:26;12.10;;;3.60;;
78116;SDS011;69042;59.120;37.904;2023-06-19T14:55:52;9.77;;;3.83;;
78116;SDS011;69042;59.120;37.904;2023-06-19T14:58:18;8.38;;;3.47;;
78116;SDS011;69042;59.120;37.904;2023-06-19T15:00:44;8.18;;;3.53;;
78116;SDS011;69042;59.120;37.904;2023-06-19T15:03:10;7.20;;;3.20;;
78116;SDS011;69042;59.120;37.904;2023-06-19T15:05:37;7.03;;;2.85;;
78116;SDS011;69042;59.120;37.904;2023-06-19T15:08:03;5.60;;;2.53;;
78116;SDS011;69042;59.120;37.904;2023-06-19T15:10:31;6.43;;;2.95;;
78116;SDS011;69042;59.120;37.904;2023-06-19T15:12:57;19.80;;;7.75;;
78116;SDS011;69042;59.120;37.904;2023-06-19T15:15:23;16.05;;;6.35;;
78116;SDS011;69042;59.120;37.904;2023-06-19T15:17:49;9.65;;;3.50;;
78116;SDS011;69042;59.120;37.904;2023-06-19T15:20:15;12.02;;;5.20;;
78116;SDS011;69042;59.120;37.904;2023-06-19T15:22:43;9.13;;;4.15;;
78116;SDS011;69042;59.120;37.904;2023-06-19T15:25:10;8.48;;;3.65;;
78116;SDS011;69042;59.120;37.904;2023-06-19T15:27:36;8.13;;;4.00;;
78116;SDS011;69042;59.120;37.904;2023-06-19T15:30:02;6.05;;;3.10;;
78116;SDS011;69042;59.120;37.904;2023-06-19T15:32:29;9.45;;;3.38;;
78116;SDS011;69042;59.120;37.904;2023-06-19T15:34:56;7.55;;;2.47;;